Time;durP1;ratioP1;P1;durP2;ratioP2;P2;SDS_P1;SDS_P2;PMS_P1;PMS_P2;Temp;Humidity;BMP_temperature;BMP_pressure;BME280_temperature;BME280_humidity;BME280_pressure;Samples;Min_cycle;Max_cycle;Signal;HPM_P1;HPM_P2
2023/05/31 00:00:25;;;;;;;5.50;4.00;;;;;;;;;;5060675;28;20480;-78
2023/05/31 00:02:54;;;;;;;7.17;3.67;;;;;;;;;;5060713;28;20456;-79
2023/05/31 00:05:21;;;;;;;4.30;2.80;;;;;;;;;;5060362;28;20438;-79
2023/05/31 00:07:48;;;;;;;8.13;3.33;;;;;;;;;;5060212;28;20441;-79
2023/05/31 00:10:15;;;;;;;7.63;4.17;;;;;;;;;;5060259;28;20499;-79
2023/05/31 00:12:42;;;;;;;7.63;3.67;;;;;;;;;;5060938;28;20460;-79
2023/05/31 00:15:10;;;;;;;4.70;3.67;;;;;;;;;;5064083;28;20441;-79
2023/05/31 00:17:37;;;;;;;4.40;3.13;;;;;;;;;;5062014;28;20457;-79
2023/05/31 00:20:06;;;;;;;4.93;3.50;;;;;;;;;;5061963;28;20476;-78
2023/05/31 00:22:33;;;;;;;5.20;3.20;;;;;;;;;;5061885;28;20454;-78
2023/05/31 00:25:00;;;;;;;6.00;3.73;;;;;;;;;;5064357;28;20962;-79
2023/05/31 00:27:27;;;;;;;5.73;3.13;;;;;;;;;;5064478;28;20443;-79
2023/05/31 00:29:54;;;;;;;6.63;3.20;;;;;;;;;;5060377;28;20496;-78
2023/05/31 00:32:21;;;;;;;4.63;3.07;;;;;;;;;;5061354;28;20547;-79
2023/05/31 00:34:48;;;;;;;5.13;3.47;;;;;;;;;;5061356;28;20822;-79
2023/05/31 00:37:17;;;;;;;6.33;3.20;;;;;;;;;;5062176;28;20452;-79
2023/05/31 00:39:44;;;;;;;3.60;3.03;;;;;;;;;;5061218;28;20464;-78
2023/05/31 00:42:11;;;;;;;4.90;2.77;;;;;;;;;;5061349;28;20453;-78
2023/05/31 00:44:39;;;;;;;4.30;3.30;;;;;;;;;;5061141;28;20456;-79
2023/05/31 00:47:06;;;;;;;4.50;3.50;;;;;;;;;;5061109;28;20448;-78
2023/05/31 00:49:34;;;;;;;4.33;3.80;;;;;;;;;;5060961;28;20507;-78
2023/05/31 00:52:01;;;;;;;4.10;3.30;;;;;;;;;;5060939;28;20452;-78
2023/05/31 00:54:30;;;;;;;8.20;3.30;;;;;;;;;;5061920;28;20448;-79
2023/05/31 00:56:57;;;;;;;7.10;3.40;;;;;;;;;;5061867;28;20452;-79
2023/05/31 00:59:24;;;;;;;4.10;3.00;;;;;;;;;;5059964;28;20511;-79
2023/05/31 01:01:51;;;;;;;7.00;3.27;;;;;;;;;;5059521;28;20453;-79
2023/05/31 01:04:18;;;;;;;8.40;4.07;;;;;;;;;;5060655;28;20453;-79
2023/05/31 01:06:46;;;;;;;5.47;3.30;;;;;;;;;;5057896;28;20452;-78
2023/05/31 01:09:13;;;;;;;5.87;3.33;;;;;;;;;;5057835;28;20565;-78
2023/05/31 01:11:49;;;;;;;13.57;4.07;;;;;;;;;;5056621;28;20950;-79
2023/05/31 01:14:21;;;;;;;6.83;3.37;;;;;;;;;;5058088;28;20441;-78
2023/05/31 01:16:52;;;;;;;10.83;3.40;;;;;;;;;;5057987;28;20818;-78
2023/05/31 01:19:26;;;;;;;9.80;4.07;;;;;;;;;;5057996;28;20594;-78
2023/05/31 01:21:58;;;;;;;7.63;4.13;;;;;;;;;;5058097;28;20433;-78
2023/05/31 01:24:27;;;;;;;6.20;3.17;;;;;;;;;;5058464;28;20471;-78
2023/05/31 01:26:58;;;;;;;7.83;3.37;;;;;;;;;;5058043;28;20460;-78
2023/05/31 01:29:27;;;;;;;5.67;3.43;;;;;;;;;;5058110;28;20492;-78
2023/05/31 01:31:56;;;;;;;4.17;3.17;;;;;;;;;;5057205;28;20456;-78
2023/05/31 01:34:23;;;;;;;7.07;3.27;;;;;;;;;;5057692;28;20456;-78
2023/05/31 01:36:51;;;;;;;6.10;3.73;;;;;;;;;;5058444;28;20452;-78
2023/05/31 01:39:18;;;;;;;10.43;4.47;;;;;;;;;;5057955;28;20475;-79
2023/05/31 01:41:47;;;;;;;6.83;3.23;;;;;;;;;;5058082;28;20475;-78
2023/05/31 01:44:18;;;;;;;7.47;4.20;;;;;;;;;;5058641;28;20461;-79
2023/05/31 01:46:45;;;;;;;8.30;4.00;;;;;;;;;;5059023;28;20503;-79
2023/05/31 01:49:13;;;;;;;6.43;3.23;;;;;;;;;;5058708;28;20488;-78
2023/05/31 01:51:41;;;;;;;6.17;3.67;;;;;;;;;;5059424;28;20459;-78
2023/05/31 01:54:09;;;;;;;9.10;3.17;;;;;;;;;;5059638;28;20453;-78
2023/05/31 01:56:37;;;;;;;6.77;3.40;;;;;;;;;;5059661;28;20452;-79
2023/05/31 01:59:06;;;;;;;4.63;3.00;;;;;;;;;;5058996;28;20476;-78
2023/05/31 02:01:35;;;;;;;4.40;3.10;;;;;;;;;;5058567;28;20453;-79
2023/05/31 02:04:02;;;;;;;6.60;3.63;;;;;;;;;;5058547;28;20954;-78
2023/05/31 02:06:30;;;;;;;7.17;3.50;;;;;;;;;;5059198;28;20460;-79
2023/05/31 02:08:57;;;;;;;6.17;3.67;;;;;;;;;;5057612;28;20940;-78
2023/05/31 02:11:25;;;;;;;4.00;2.80;;;;;;;;;;5058356;28;20460;-78
2023/05/31 02:13:52;;;;;;;5.83;3.30;;;;;;;;;;5058534;28;20912;-78
2023/05/31 02:16:19;;;;;;;6.70;3.03;;;;;;;;;;5057208;28;20453;-78
2023/05/31 02:18:48;;;;;;;11.93;4.13;;;;;;;;;;5057868;28;20477;-78
2023/05/31 02:21:15;;;;;;;6.30;3.33;;;;;;;;;;5057941;28;20457;-78
2023/05/31 02:23:43;;;;;;;5.60;3.10;;;;;;;;;;5058235;28;20449;-78
2023/05/31 02:26:10;;;;;;;5.20;3.00;;;;;;;;;;5056971;28;20448;-78
2023/05/31 02:28:37;;;;;;;5.97;3.40;;;;;;;;;;5058553;28;20507;-78
2023/05/31 02:31:05;;;;;;;8.53;4.13;;;;;;;;;;5058594;28;20452;-78
2023/05/31 02:33:32;;;;;;;10.90;4.00;;;;;;;;;;5059706;28;20448;-78
2023/05/31 02:36:01;;;;;;;9.93;5.13;;;;;;;;;;5058904;28;20467;-78
2023/05/31 02:38:28;;;;;;;6.83;3.40;;;;;;;;;;5058449;28;20464;-78
2023/05/31 02:40:55;;;;;;;8.70;3.40;;;;;;;;;;5058899;28;20453;-78
2023/05/31 02:43:22;;;;;;;6.40;3.60;;;;;;;;;;5058991;28;20931;-78
2023/05/31 02:45:50;;;;;;;8.03;2.87;;;;;;;;;;5059868;28;20449;-78
2023/05/31 02:48:17;;;;;;;7.47;3.80;;;;;;;;;;5059136;28;20886;-79
2023/05/31 02:50:44;;;;;;;6.27;3.50;;;;;;;;;;5058206;28;20994;-78
2023/05/31 02:53:13;;;;;;;7.70;4.00;;;;;;;;;;5058870;28;20455;-78
2023/05/31 02:55:40;;;;;;;6.07;3.33;;;;;;;;;;5058031;28;20452;-78
2023/05/31 02:58:08;;;;;;;7.10;3.20;;;;;;;;;;5058150;28;20452;-78
2023/05/31 03:00:35;;;;;;;7.87;3.80;;;;;;;;;;5057380;28;20461;-78
2023/05/31 03:03:02;;;;;;;3.67;2.57;;;;;;;;;;5056595;28;20449;-78
2023/05/31 03:05:29;;;;;;;5.57;3.27;;;;;;;;;;5056408;28;20452;-78
2023/05/31 03:07:56;;;;;;;12.47;4.30;;;;;;;;;;5056068;28;20460;-78
2023/05/31 03:10:25;;;;;;;7.87;3.50;;;;;;;;;;5055935;28;20564;-78
2023/05/31 03:12:52;;;;;;;7.17;3.80;;;;;;;;;;5056473;28;20821;-78
2023/05/31 03:15:20;;;;;;;11.60;4.10;;;;;;;;;;5056254;28;20456;-78
2023/05/31 03:17:47;;;;;;;5.13;3.80;;;;;;;;;;5056699;28;20556;-78
2023/05/31 03:20:14;;;;;;;6.23;2.93;;;;;;;;;;5057194;28;20465;-78
2023/05/31 03:22:41;;;;;;;4.67;3.23;;;;;;;;;;5057206;28;20943;-79
2023/05/31 03:25:08;;;;;;;6.20;2.90;;;;;;;;;;5057784;28;20475;-79
2023/05/31 03:27:37;;;;;;;6.43;3.37;;;;;;;;;;5057934;28;20433;-79
2023/05/31 03:30:06;;;;;;;9.43;4.00;;;;;;;;;;5057877;28;20501;-79
2023/05/31 03:32:33;;;;;;;4.97;3.60;;;;;;;;;;5057470;28;20463;-79
2023/05/31 03:35:00;;;;;;;9.73;3.43;;;;;;;;;;5061214;28;20460;-79
2023/05/31 03:37:27;;;;;;;6.77;2.90;;;;;;;;;;5061819;28;20832;-79
2023/05/31 03:39:54;;;;;;;7.77;3.60;;;;;;;;;;5060854;28;20464;-79
2023/05/31 03:42:21;;;;;;;11.67;4.30;;;;;;;;;;5064398;28;20915;-79
2023/05/31 03:44:50;;;;;;;12.37;3.33;;;;;;;;;;5062600;28;20453;-79
2023/05/31 03:47:17;;;;;;;7.47;4.13;;;;;;;;;;5064813;28;20448;-78
2023/05/31 03:49:44;;;;;;;8.33;4.07;;;;;;;;;;5061085;28;20492;-78
2023/05/31 03:52:12;;;;;;;6.90;3.57;;;;;;;;;;5062355;28;20824;-78
2023/05/31 03:54:39;;;;;;;10.27;4.23;;;;;;;;;;5061331;28;20476;-78
2023/05/31 03:57:07;;;;;;;6.10;3.90;;;;;;;;;;5062815;28;20457;-78
2023/05/31 03:59:35;;;;;;;9.10;3.80;;;;;;;;;;5062278;28;20540;-78
2023/05/31 04:02:03;;;;;;;8.53;3.50;;;;;;;;;;5062218;28;20452;-78
2023/05/31 04:04:30;;;;;;;7.57;4.00;;;;;;;;;;5062105;28;20460;-78
2023/05/31 04:06:58;;;;;;;9.70;3.83;;;;;;;;;;5062559;28;20531;-78
2023/05/31 04:09:25;;;;;;;8.67;3.77;;;;;;;;;;5062319;28;21037;-78
2023/05/31 04:11:52;;;;;;;7.30;3.40;;;;;;;;;;5063998;28;20452;-78
2023/05/31 04:14:19;;;;;;;5.83;3.30;;;;;;;;;;5061833;28;20456;-78
2023/05/31 04:16:46;;;;;;;14.23;3.87;;;;;;;;;;5063352;28;20817;-78
2023/05/31 04:19:14;;;;;;;5.10;3.83;;;;;;;;;;5062612;28;20469;-78
2023/05/31 04:21:42;;;;;;;8.63;3.33;;;;;;;;;;5061619;28;20452;-78
2023/05/31 04:24:09;;;;;;;9.10;3.00;;;;;;;;;;5061714;28;20441;-78
2023/05/31 04:26:37;;;;;;;8.77;3.07;;;;;;;;;;5062662;28;20429;-79
2023/05/31 04:29:04;;;;;;;8.60;2.93;;;;;;;;;;5061711;28;20563;-78
2023/05/31 04:31:35;;;;;;;5.20;2.50;;;;;;;;;;5062393;28;20566;-78
2023/05/31 04:34:04;;;;;;;9.53;3.60;;;;;;;;;;5061687;28;20445;-78
2023/05/31 04:36:35;;;;;;;4.17;2.97;;;;;;;;;;5061876;28;20466;-79
2023/05/31 04:39:05;;;;;;;8.37;4.43;;;;;;;;;;5062378;28;20481;-77
2023/05/31 04:41:32;;;;;;;5.67;3.00;;;;;;;;;;5058337;28;20453;-79
2023/05/31 04:43:59;;;;;;;5.20;3.10;;;;;;;;;;5063452;28;20455;-79
2023/05/31 04:46:26;;;;;;;4.60;3.10;;;;;;;;;;5063882;28;20954;-79
2023/05/31 04:48:55;;;;;;;4.70;3.33;;;;;;;;;;5063494;28;20496;-79
2023/05/31 04:51:23;;;;;;;4.93;3.30;;;;;;;;;;5063230;28;20485;-79
2023/05/31 04:53:51;;;;;;;3.93;3.30;;;;;;;;;;5063414;28;20473;-79
2023/05/31 04:56:18;;;;;;;5.27;2.47;;;;;;;;;;5062620;28;20453;-77
2023/05/31 04:58:46;;;;;;;5.10;2.70;;;;;;;;;;5058274;28;20468;-78
2023/05/31 05:01:15;;;;;;;8.53;2.70;;;;;;;;;;5058730;28;20445;-78
2023/05/31 05:03:42;;;;;;;5.93;2.83;;;;;;;;;;5060704;28;20507;-78
2023/05/31 05:06:13;;;;;;;7.77;2.90;;;;;;;;;;5057562;28;20445;-77
2023/05/31 05:08:40;;;;;;;4.07;3.20;;;;;;;;;;5057025;28;20522;-78
2023/05/31 05:11:09;;;;;;;4.83;3.03;;;;;;;;;;5059466;28;20500;-78
2023/05/31 05:13:36;;;;;;;6.33;3.10;;;;;;;;;;5076822;28;20459;-77
2023/05/31 05:16:03;;;;;;;7.33;2.80;;;;;;;;;;5075301;28;20957;-77
2023/05/31 05:18:30;;;;;;;4.30;3.17;;;;;;;;;;5077048;28;20463;-77
2023/05/31 05:20:58;;;;;;;6.90;3.50;;;;;;;;;;5079341;28;20448;-79
2023/05/31 05:23:25;;;;;;;4.10;2.43;;;;;;;;;;5080280;28;20456;-79
2023/05/31 05:25:52;;;;;;;8.90;3.37;;;;;;;;;;5077551;28;20846;-78
2023/05/31 05:28:22;;;;;;;3.83;2.93;;;;;;;;;;5080921;28;20463;-78
2023/05/31 05:30:49;;;;;;;7.83;2.83;;;;;;;;;;5076213;28;20532;-78
2023/05/31 05:33:16;;;;;;;7.60;2.80;;;;;;;;;;5079702;28;20483;-78
2023/05/31 05:35:43;;;;;;;5.07;3.60;;;;;;;;;;5083084;28;20455;-79
2023/05/31 05:38:10;;;;;;;4.60;2.80;;;;;;;;;;5081998;28;20451;-78
2023/05/31 05:40:38;;;;;;;5.70;2.47;;;;;;;;;;5078954;28;20564;-78
2023/05/31 05:43:05;;;;;;;5.90;3.30;;;;;;;;;;5079634;28;20486;-78
2023/05/31 05:45:33;;;;;;;5.53;3.57;;;;;;;;;;5079385;28;20472;-78
2023/05/31 05:48:00;;;;;;;3.40;2.87;;;;;;;;;;5076953;28;20455;-78
2023/05/31 05:50:27;;;;;;;3.53;2.60;;;;;;;;;;5076744;28;20993;-77
2023/05/31 05:52:54;;;;;;;6.10;3.60;;;;;;;;;;5078005;28;20467;-78
2023/05/31 05:55:21;;;;;;;5.20;3.43;;;;;;;;;;5076874;28;20456;-78
2023/05/31 05:57:49;;;;;;;6.73;4.10;;;;;;;;;;5075115;28;20479;-77
2023/05/31 06:00:17;;;;;;;8.63;3.40;;;;;;;;;;5075616;28;20458;-77
2023/05/31 06:02:46;;;;;;;12.20;3.80;;;;;;;;;;5075548;28;20460;-78
2023/05/31 06:05:13;;;;;;;8.97;2.97;;;;;;;;;;5074998;28;20459;-78
2023/05/31 06:07:40;;;;;;;8.47;3.53;;;;;;;;;;5075874;28;20538;-78
2023/05/31 06:10:08;;;;;;;4.90;2.90;;;;;;;;;;5075506;28;20497;-78
2023/05/31 06:12:35;;;;;;;4.60;2.70;;;;;;;;;;5074909;28;20845;-78
2023/05/31 06:15:02;;;;;;;4.97;3.00;;;;;;;;;;5078549;28;20439;-78
2023/05/31 06:17:29;;;;;;;6.00;2.73;;;;;;;;;;5076222;28;20456;-78
2023/05/31 06:19:58;;;;;;;5.83;2.90;;;;;;;;;;5075115;28;20839;-78
2023/05/31 06:22:25;;;;;;;5.30;2.77;;;;;;;;;;5076579;28;20452;-78
2023/05/31 06:24:53;;;;;;;4.60;3.20;;;;;;;;;;5077504;28;20428;-78
2023/05/31 06:27:21;;;;;;;4.10;2.73;;;;;;;;;;5077896;28;20534;-78
2023/05/31 06:29:51;;;;;;;8.77;3.17;;;;;;;;;;5076229;28;20488;-78
2023/05/31 06:32:19;;;;;;;10.10;3.37;;;;;;;;;;5075518;28;20480;-78
2023/05/31 06:34:46;;;;;;;7.20;3.03;;;;;;;;;;5076280;28;20566;-78
2023/05/31 06:37:15;;;;;;;8.93;3.70;;;;;;;;;;5076686;28;20448;-78
2023/05/31 06:39:42;;;;;;;7.17;3.03;;;;;;;;;;5076648;28;20499;-78
2023/05/31 06:42:11;;;;;;;5.33;2.83;;;;;;;;;;5076134;28;20455;-78
2023/05/31 06:44:38;;;;;;;4.93;3.17;;;;;;;;;;5076411;28;20460;-77
2023/05/31 06:47:05;;;;;;;9.73;4.03;;;;;;;;;;5076891;28;20837;-78
2023/05/31 06:49:32;;;;;;;8.97;3.30;;;;;;;;;;5078406;28;20986;-79
2023/05/31 06:51:59;;;;;;;9.77;3.50;;;;;;;;;;5077256;28;20534;-78
2023/05/31 06:54:28;;;;;;;5.50;3.00;;;;;;;;;;5076393;28;20463;-78
2023/05/31 06:56:56;;;;;;;5.87;3.70;;;;;;;;;;5075769;28;20443;-78
2023/05/31 06:59:23;;;;;;;4.30;2.70;;;;;;;;;;5075506;28;21009;-78
2023/05/31 07:01:52;;;;;;;11.27;3.50;;;;;;;;;;5077497;28;20439;-78
2023/05/31 07:04:19;;;;;;;4.83;3.07;;;;;;;;;;5077719;28;20447;-78
2023/05/31 07:06:46;;;;;;;4.53;3.60;;;;;;;;;;5076620;28;20451;-78
2023/05/31 07:09:13;;;;;;;7.00;3.37;;;;;;;;;;5077476;28;20470;-78
2023/05/31 07:11:40;;;;;;;5.10;3.10;;;;;;;;;;5081458;28;20483;-78
2023/05/31 07:14:09;;;;;;;5.50;3.37;;;;;;;;;;5079958;28;20479;-78
2023/05/31 07:16:36;;;;;;;4.60;3.10;;;;;;;;;;5080802;28;20456;-78
2023/05/31 07:19:03;;;;;;;7.20;3.30;;;;;;;;;;5080807;28;20471;-78
2023/05/31 07:21:30;;;;;;;6.33;3.57;;;;;;;;;;5080835;28;20839;-78
2023/05/31 07:23:58;;;;;;;4.80;3.00;;;;;;;;;;5079886;28;20452;-78
2023/05/31 07:26:25;;;;;;;5.67;3.00;;;;;;;;;;5081166;28;20953;-79
2023/05/31 07:28:52;;;;;;;4.43;3.00;;;;;;;;;;5081100;28;20843;-78
2023/05/31 07:31:21;;;;;;;4.70;2.80;;;;;;;;;;5079923;28;20490;-78
2023/05/31 07:33:48;;;;;;;5.23;3.20;;;;;;;;;;5079934;28;20448;-78
2023/05/31 07:36:17;;;;;;;5.33;3.43;;;;;;;;;;5079523;28;20440;-78
2023/05/31 07:38:44;;;;;;;10.53;3.60;;;;;;;;;;5080450;28;20562;-78
2023/05/31 07:41:11;;;;;;;7.33;2.80;;;;;;;;;;5081012;28;20459;-79
2023/05/31 07:43:40;;;;;;;4.27;2.83;;;;;;;;;;5079128;28;20833;-78
2023/05/31 07:46:07;;;;;;;6.60;3.37;;;;;;;;;;5080098;28;20462;-78
2023/05/31 07:48:36;;;;;;;6.00;3.67;;;;;;;;;;5080103;28;20467;-78
2023/05/31 07:51:03;;;;;;;7.30;3.50;;;;;;;;;;5080306;28;20514;-78
2023/05/31 07:53:30;;;;;;;7.87;4.00;;;;;;;;;;5080403;28;20471;-78
2023/05/31 07:55:57;;;;;;;7.67;4.90;;;;;;;;;;5079965;28;20455;-78
2023/05/31 07:58:25;;;;;;;5.80;3.20;;;;;;;;;;5081538;28;20452;-79
2023/05/31 08:00:53;;;;;;;7.23;3.07;;;;;;;;;;5079732;28;20440;-79
2023/05/31 08:03:20;;;;;;;4.50;3.10;;;;;;;;;;5081565;28;20868;-79
2023/05/31 08:05:49;;;;;;;6.80;2.90;;;;;;;;;;5078466;28;20451;-78
2023/05/31 08:08:16;;;;;;;6.23;3.50;;;;;;;;;;5077577;28;20463;-78
2023/05/31 08:10:43;;;;;;;9.07;3.00;;;;;;;;;;5078648;28;20483;-78
2023/05/31 08:13:11;;;;;;;4.60;3.70;;;;;;;;;;5077869;28;20459;-78
2023/05/31 08:15:38;;;;;;;4.00;2.63;;;;;;;;;;5079315;28;20471;-78
2023/05/31 08:18:05;;;;;;;6.33;3.00;;;;;;;;;;5077903;28;20452;-78
2023/05/31 08:20:32;;;;;;;5.63;3.13;;;;;;;;;;5078926;28;20463;-78
2023/05/31 08:23:01;;;;;;;5.67;3.00;;;;;;;;;;5081754;28;20455;-79
2023/05/31 08:25:28;;;;;;;8.17;3.60;;;;;;;;;;5082369;28;20448;-79
2023/05/31 08:27:55;;;;;;;4.10;2.80;;;;;;;;;;5080795;28;20447;-78
2023/05/31 08:30:22;;;;;;;6.33;3.43;;;;;;;;;;5078678;28;20547;-78
2023/05/31 08:32:49;;;;;;;6.83;3.63;;;;;;;;;;5078972;28;20484;-78
2023/05/31 08:35:16;;;;;;;9.30;3.73;;;;;;;;;;5080192;28;20513;-78
2023/05/31 08:37:44;;;;;;;7.87;3.23;;;;;;;;;;5078513;28;20448;-78
2023/05/31 08:40:13;;;;;;;6.80;3.67;;;;;;;;;;5080581;28;20985;-78
2023/05/31 08:42:41;;;;;;;10.83;3.73;;;;;;;;;;5080359;28;20459;-79
2023/05/31 08:45:10;;;;;;;6.87;3.40;;;;;;;;;;5079357;28;20454;-78
2023/05/31 08:47:39;;;;;;;8.77;3.77;;;;;;;;;;5078638;28;20454;-78
2023/05/31 08:50:07;;;;;;;11.53;3.80;;;;;;;;;;5079353;28;20844;-78
2023/05/31 08:52:34;;;;;;;7.90;4.03;;;;;;;;;;5079648;28;20506;-78
2023/05/31 08:55:03;;;;;;;7.07;4.33;;;;;;;;;;5079611;28;20462;-79
2023/05/31 08:57:33;;;;;;;4.90;2.77;;;;;;;;;;5077951;28;20460;-78
2023/05/31 09:00:08;;;;;;;6.63;3.53;;;;;;;;;;5078229;28;20468;-78
2023/05/31 09:02:35;;;;;;;4.77;3.00;;;;;;;;;;5077370;28;20950;-79
2023/05/31 09:05:02;;;;;;;5.70;3.50;;;;;;;;;;5077534;28;20451;-78
2023/05/31 09:07:30;;;;;;;8.10;3.27;;;;;;;;;;5078501;28;20538;-78
2023/05/31 09:09:57;;;;;;;7.43;3.53;;;;;;;;;;5080416;28;20456;-79
2023/05/31 09:12:24;;;;;;;6.20;3.30;;;;;;;;;;5077800;28;20491;-78
2023/05/31 09:14:53;;;;;;;8.40;3.70;;;;;;;;;;5078184;28;20460;-79
2023/05/31 09:17:20;;;;;;;4.40;3.30;;;;;;;;;;5078757;28;20958;-78
2023/05/31 09:19:51;;;;;;;5.87;3.40;;;;;;;;;;5077925;28;20482;-79
2023/05/31 09:22:18;;;;;;;8.70;4.23;;;;;;;;;;5081482;28;20456;-79
2023/05/31 09:24:50;;;;;;;10.10;5.57;;;;;;;;;;5078710;28;20530;-79
2023/05/31 09:27:17;;;;;;;4.80;3.47;;;;;;;;;;5079353;28;20938;-78
2023/05/31 09:29:44;;;;;;;9.93;4.60;;;;;;;;;;5080292;28;20479;-78
2023/05/31 09:32:13;;;;;;;5.83;4.10;;;;;;;;;;5078368;28;20498;-78
2023/05/31 09:34:41;;;;;;;10.87;3.93;;;;;;;;;;5079811;28;20482;-78
2023/05/31 09:37:08;;;;;;;6.97;3.93;;;;;;;;;;5077868;28;20467;-79
2023/05/31 09:39:35;;;;;;;15.80;3.73;;;;;;;;;;5080112;28;20475;-78
2023/05/31 09:42:12;;;;;;;7.40;3.80;;;;;;;;;;5080146;28;20456;-78
2023/05/31 09:44:39;;;;;;;11.13;4.50;;;;;;;;;;5079630;28;20839;-78
2023/05/31 09:47:08;;;;;;;6.40;4.17;;;;;;;;;;5078299;28;20455;-79
2023/05/31 09:49:37;;;;;;;8.13;4.13;;;;;;;;;;5079946;28;20547;-78
2023/05/31 09:52:04;;;;;;;7.73;4.40;;;;;;;;;;5079300;28;20869;-79
2023/05/31 09:54:35;;;;;;;9.50;3.90;;;;;;;;;;5080540;28;20793;-79
2023/05/31 09:57:02;;;;;;;4.63;3.87;;;;;;;;;;5079777;28;20526;-78
2023/05/31 09:59:33;;;;;;;8.50;4.63;;;;;;;;;;5077860;28;20471;-78
2023/05/31 10:02:01;;;;;;;6.63;4.47;;;;;;;;;;5081267;28;20444;-78
2023/05/31 10:04:28;;;;;;;4.10;3.60;;;;;;;;;;5080613;28;20451;-78
2023/05/31 10:06:57;;;;;;;6.67;3.50;;;;;;;;;;5078929;28;20459;-78
2023/05/31 10:09:24;;;;;;;8.30;4.37;;;;;;;;;;5078595;28;20476;-78
2023/05/31 10:11:52;;;;;;;7.23;4.57;;;;;;;;;;5079082;28;20487;-79
2023/05/31 10:14:22;;;;;;;13.10;4.60;;;;;;;;;;5079193;28;20951;-79
2023/05/31 10:16:50;;;;;;;6.83;4.60;;;;;;;;;;5076405;28;20455;-78
2023/05/31 10:19:20;;;;;;;9.53;4.77;;;;;;;;;;5079573;28;20989;-78
2023/05/31 10:21:47;;;;;;;4.97;4.40;;;;;;;;;;5077458;28;20443;-78
2023/05/31 10:24:19;;;;;;;9.37;4.17;;;;;;;;;;5077649;28;20826;-78
2023/05/31 10:26:51;;;;;;;8.70;4.77;;;;;;;;;;5078678;28;20497;-78
2023/05/31 10:29:21;;;;;;;5.83;4.87;;;;;;;;;;5077747;28;20479;-78
2023/05/31 10:31:50;;;;;;;7.07;4.93;;;;;;;;;;5076439;28;20479;-79
2023/05/31 10:34:20;;;;;;;6.50;4.07;;;;;;;;;;5076931;28;20458;-78
2023/05/31 10:36:47;;;;;;;7.33;4.20;;;;;;;;;;5079925;28;20448;-78
2023/05/31 10:39:20;;;;;;;7.97;5.60;;;;;;;;;;5078333;28;20557;-78
2023/05/31 10:41:51;;;;;;;4.83;4.00;;;;;;;;;;5080946;28;20435;-79
2023/05/31 10:44:19;;;;;;;7.70;4.60;;;;;;;;;;5084191;28;20993;-79
2023/05/31 10:46:48;;;;;;;6.90;4.40;;;;;;;;;;5085012;28;20459;-78
2023/05/31 10:49:16;;;;;;;8.60;4.40;;;;;;;;;;5084230;28;20986;-79
2023/05/31 10:51:45;;;;;;;6.17;3.90;;;;;;;;;;5085302;28;20480;-78
2023/05/31 10:54:19;;;;;;;6.67;3.90;;;;;;;;;;5085533;28;20976;-78
2023/05/31 10:56:53;;;;;;;7.93;4.13;;;;;;;;;;5084857;28;20457;-79
2023/05/31 10:59:20;;;;;;;9.83;3.53;;;;;;;;;;5084384;28;20456;-79
2023/05/31 11:01:48;;;;;;;7.60;4.13;;;;;;;;;;5083211;28;20447;-79
2023/05/31 11:04:21;;;;;;;4.30;3.90;;;;;;;;;;5084005;28;20841;-79
2023/05/31 11:06:48;;;;;;;5.70;3.87;;;;;;;;;;5083722;28;20473;-79
2023/05/31 11:09:17;;;;;;;8.50;3.80;;;;;;;;;;5083644;28;20482;-79
2023/05/31 11:11:46;;;;;;;6.50;3.70;;;;;;;;;;5084199;28;20514;-79
2023/05/31 11:14:26;;;;;;;6.97;3.80;;;;;;;;;;5081199;28;20486;-78
2023/05/31 11:17:12;;;;;;;6.93;4.17;;;;;;;;;;5081463;28;20467;-78
2023/05/31 11:19:40;;;;;;;8.67;3.77;;;;;;;;;;5083149;28;20487;-79
2023/05/31 11:22:08;;;;;;;6.33;4.63;;;;;;;;;;5083482;28;20444;-78
2023/05/31 11:24:38;;;;;;;3.80;3.37;;;;;;;;;;5083422;28;20444;-79
2023/05/31 11:27:06;;;;;;;6.10;3.60;;;;;;;;;;5083710;28;20455;-79
2023/05/31 11:29:58;;;;;;;8.10;3.50;;;;;;;;;;5083212;28;20490;-79
2023/05/31 11:32:40;;;;;;;9.13;3.93;;;;;;;;;;5069537;28;20487;-78
2023/05/31 11:35:08;;;;;;;6.77;4.53;;;;;;;;;;5083192;28;20500;-78
2023/05/31 11:37:37;;;;;;;9.53;3.93;;;;;;;;;;5083726;28;20444;-78
2023/05/31 11:40:07;;;;;;;9.07;3.70;;;;;;;;;;5087449;28;20493;-79
2023/05/31 11:42:34;;;;;;;9.10;3.93;;;;;;;;;;5083519;28;21002;-78
2023/05/31 11:45:04;;;;;;;7.30;4.53;;;;;;;;;;5082965;28;20438;-79
2023/05/31 11:47:34;;;;;;;5.47;3.87;;;;;;;;;;5084607;28;20440;-79
2023/05/31 11:50:02;;;;;;;4.60;4.20;;;;;;;;;;5082209;28;20479;-78
2023/05/31 11:52:30;;;;;;;5.53;3.90;;;;;;;;;;5080970;28;20552;-78
2023/05/31 11:55:05;;;;;;;12.20;5.00;;;;;;;;;;5080286;28;20539;-79
2023/05/31 11:57:41;;;;;;;7.33;4.80;;;;;;;;;;5084006;28;20442;-79
2023/05/31 12:00:11;;;;;;;9.70;4.30;;;;;;;;;;5082778;28;20526;-79
2023/05/31 12:02:38;;;;;;;5.20;3.73;;;;;;;;;;5080912;28;20436;-78
2023/05/31 12:05:05;;;;;;;6.33;4.37;;;;;;;;;;5080469;28;20958;-78
2023/05/31 12:07:33;;;;;;;4.60;4.13;;;;;;;;;;5080083;28;20455;-78
2023/05/31 12:10:01;;;;;;;6.30;4.20;;;;;;;;;;5080979;28;20471;-78
2023/05/31 12:12:28;;;;;;;7.67;4.73;;;;;;;;;;5080267;28;20486;-79
2023/05/31 12:14:56;;;;;;;6.70;4.30;;;;;;;;;;5081305;28;20452;-79
2023/05/31 12:17:23;;;;;;;6.23;3.70;;;;;;;;;;5079568;28;20463;-78
2023/05/31 12:19:51;;;;;;;5.00;3.70;;;;;;;;;;5081061;28;20479;-78
2023/05/31 12:22:18;;;;;;;6.90;3.90;;;;;;;;;;5080014;28;20454;-78
2023/05/31 12:24:50;;;;;;;7.90;4.00;;;;;;;;;;5080534;28;20443;-78
2023/05/31 12:27:17;;;;;;;9.20;4.13;;;;;;;;;;5080256;28;20822;-78
2023/05/31 12:29:44;;;;;;;7.83;3.93;;;;;;;;;;5078041;28;20566;-78
2023/05/31 12:32:12;;;;;;;5.27;4.30;;;;;;;;;;5078038;28;20483;-79
2023/05/31 12:34:40;;;;;;;12.00;10.83;;;;;;;;;;5081567;28;20823;-78
2023/05/31 12:37:08;;;;;;;6.37;4.23;;;;;;;;;;5078818;28;20452;-78
2023/05/31 12:39:35;;;;;;;10.73;4.27;;;;;;;;;;5078892;28;20479;-78
2023/05/31 12:42:03;;;;;;;10.03;5.30;;;;;;;;;;5079912;28;20451;-78
2023/05/31 12:44:31;;;;;;;6.63;4.30;;;;;;;;;;5078994;28;20452;-78
2023/05/31 12:47:00;;;;;;;5.40;4.17;;;;;;;;;;5080007;28;20554;-78
2023/05/31 12:49:30;;;;;;;6.17;4.63;;;;;;;;;;5078507;28;20475;-79
2023/05/31 12:52:01;;;;;;;10.67;4.50;;;;;;;;;;5078854;28;20451;-78
2023/05/31 12:54:28;;;;;;;4.97;4.17;;;;;;;;;;5076425;28;20463;-78
2023/05/31 12:56:57;;;;;;;6.47;4.20;;;;;;;;;;5078624;28;20462;-79
2023/05/31 12:59:24;;;;;;;4.83;4.03;;;;;;;;;;5077308;28;20990;-78
2023/05/31 13:01:52;;;;;;;9.10;3.80;;;;;;;;;;5077032;28;20508;-78
2023/05/31 13:04:19;;;;;;;5.33;4.07;;;;;;;;;;5077057;28;20440;-78
2023/05/31 13:06:47;;;;;;;6.80;4.67;;;;;;;;;;5076365;28;20452;-78
2023/05/31 13:09:15;;;;;;;4.77;4.27;;;;;;;;;;5075968;28;20982;-78
2023/05/31 13:11:42;;;;;;;5.97;4.10;;;;;;;;;;5075545;28;20447;-78
2023/05/31 13:14:10;;;;;;;8.13;7.30;;;;;;;;;;5074282;28;20488;-78
2023/05/31 13:16:37;;;;;;;18.93;17.13;;;;;;;;;;5075637;28;20463;-78
2023/05/31 13:19:05;;;;;;;7.23;4.60;;;;;;;;;;5077473;28;20502;-78
2023/05/31 13:21:33;;;;;;;5.40;3.90;;;;;;;;;;5075627;28;20487;-78
2023/05/31 13:24:02;;;;;;;8.00;4.10;;;;;;;;;;5075923;28;20455;-78
2023/05/31 13:26:29;;;;;;;8.30;5.00;;;;;;;;;;5076623;28;20467;-78
2023/05/31 13:28:56;;;;;;;5.40;4.07;;;;;;;;;;5076828;28;20895;-78
2023/05/31 13:31:23;;;;;;;7.23;4.30;;;;;;;;;;5075279;28;20843;-78
2023/05/31 13:33:51;;;;;;;7.73;4.03;;;;;;;;;;5076690;28;20490;-78
2023/05/31 13:36:19;;;;;;;5.73;3.77;;;;;;;;;;5077173;28;20491;-79
2023/05/31 13:38:47;;;;;;;4.47;3.87;;;;;;;;;;5074305;28;20476;-78
2023/05/31 13:41:15;;;;;;;6.73;4.47;;;;;;;;;;5076040;28;20444;-77
2023/05/31 13:43:42;;;;;;;13.30;11.90;;;;;;;;;;5074978;28;20474;-78
2023/05/31 13:46:11;;;;;;;7.17;5.60;;;;;;;;;;5075240;28;20455;-78
2023/05/31 13:48:38;;;;;;;9.90;5.53;;;;;;;;;;5075915;28;20456;-77
2023/05/31 13:51:05;;;;;;;8.57;4.60;;;;;;;;;;5074622;28;20478;-78
2023/05/31 13:53:32;;;;;;;7.07;4.63;;;;;;;;;;5075559;28;20854;-78
2023/05/31 13:56:00;;;;;;;6.17;4.67;;;;;;;;;;5075855;28;20459;-77
2023/05/31 13:58:28;;;;;;;8.13;4.40;;;;;;;;;;5075837;28;20458;-78
2023/05/31 14:00:55;;;;;;;8.03;4.13;;;;;;;;;;5075034;28;20459;-78
2023/05/31 14:03:22;;;;;;;9.83;5.30;;;;;;;;;;5076975;28;20958;-78
2023/05/31 14:05:50;;;;;;;11.40;4.63;;;;;;;;;;5076499;28;20462;-78
2023/05/31 14:08:17;;;;;;;5.47;4.03;;;;;;;;;;5074734;28;20505;-78
2023/05/31 14:10:45;;;;;;;5.10;3.87;;;;;;;;;;5076190;28;20479;-78
2023/05/31 14:13:12;;;;;;;10.93;4.90;;;;;;;;;;5077061;28;20505;-78
2023/05/31 14:15:40;;;;;;;8.83;4.60;;;;;;;;;;5077803;28;20479;-79
2023/05/31 14:18:07;;;;;;;8.40;4.30;;;;;;;;;;5073969;28;20537;-78
2023/05/31 14:20:35;;;;;;;8.03;4.60;;;;;;;;;;5076146;28;20471;-78
2023/05/31 14:23:03;;;;;;;7.30;4.00;;;;;;;;;;5075497;28;20906;-77
2023/05/31 14:25:30;;;;;;;6.73;4.57;;;;;;;;;;5074609;28;20734;-78
2023/05/31 14:27:57;;;;;;;10.20;4.30;;;;;;;;;;5075308;28;20436;-78
2023/05/31 14:30:26;;;;;;;12.07;4.87;;;;;;;;;;5074827;28;20476;-78
2023/05/31 14:32:54;;;;;;;8.77;4.30;;;;;;;;;;5075834;28;20483;-78
2023/05/31 14:35:21;;;;;;;6.13;4.10;;;;;;;;;;5076581;28;20519;-78
2023/05/31 14:37:49;;;;;;;5.33;4.50;;;;;;;;;;5075901;28;20455;-78
2023/05/31 14:40:16;;;;;;;9.57;5.47;;;;;;;;;;5074136;28;20468;-78
2023/05/31 14:42:43;;;;;;;8.20;4.80;;;;;;;;;;5077975;28;20472;-78
2023/05/31 14:45:10;;;;;;;5.60;3.93;;;;;;;;;;5075324;28;20448;-78